sensor_id;sensor_type;location;lat;lon;timestamp;P1;durP1;ratioP1;P2;durP2;ratioP2
59418;SDS011;45224;50.904;6.038;2023-11-21T00:01:21;31.38;;;9.57;;
59418;SDS011;45224;50.904;6.038;2023-11-21T00:02:51;47.17;;;8.90;;
59418;SDS011;45224;50.904;6.038;2023-11-21T00:04:22;59.05;;;9.25;;
59418;SDS011;45224;50.904;6.038;2023-11-21T00:05:52;25.40;;;9.10;;
59418;SDS011;45224;50.904;6.038;2023-11-21T00:07:23;63.70;;;11.02;;
59418;SDS011;45224;50.904;6.038;2023-11-21T00:08:54;51.75;;;8.65;;
59418;SDS011;45224;50.904;6.038;2023-11-21T00:10:24;46.60;;;8.75;;
59418;SDS011;45224;50.904;6.038;2023-11-21T00:11:55;79.95;;;9.93;;
59418;SDS011;45224;50.904;6.038;2023-11-21T00:13:25;30.38;;;7.95;;
59418;SDS011;45224;50.904;6.038;2023-11-21T00:14:56;22.98;;;8.13;;
59418;SDS011;45224;50.904;6.038;2023-11-21T00:16:27;47.40;;;9.52;;
59418;SDS011;45224;50.904;6.038;2023-11-21T00:17:58;25.90;;;8.48;;
59418;SDS011;45224;50.904;6.038;2023-11-21T00:19:28;25.67;;;8.55;;
59418;SDS011;45224;50.904;6.038;2023-11-21T00:20:59;33.88;;;9.48;;
59418;SDS011;45224;50.904;6.038;2023-11-21T00:22:29;43.05;;;8.90;;
59418;SDS011;45224;50.904;6.038;2023-11-21T00:24:00;57.38;;;10.18;;
59418;SDS011;45224;50.904;6.038;2023-11-21T00:25:30;19.48;;;9.50;;
59418;SDS011;45224;50.904;6.038;2023-11-21T00:27:01;22.80;;;8.13;;
59418;SDS011;45224;50.904;6.038;2023-11-21T00:28:32;21.63;;;8.50;;
59418;SDS011;45224;50.904;6.038;2023-11-21T00:30:03;19.75;;;7.65;;
59418;SDS011;45224;50.904;6.038;2023-11-21T00:31:37;21.17;;;10.00;;
59418;SDS011;45224;50.904;6.038;2023-11-21T00:33:09;17.98;;;8.43;;
59418;SDS011;45224;50.904;6.038;2023-11-21T00:34:40;17.65;;;9.35;;
59418;SDS011;45224;50.904;6.038;2023-11-21T00:36:10;19.92;;;8.77;;
59418;SDS011;45224;50.904;6.038;2023-11-21T00:37:41;15.65;;;8.23;;
59418;SDS011;45224;50.904;6.038;2023-11-21T00:39:12;18.55;;;8.85;;
59418;SDS011;45224;50.904;6.038;2023-11-21T00:40:43;17.60;;;8.23;;
59418;SDS011;45224;50.904;6.038;2023-11-21T00:42:13;15.63;;;8.15;;
59418;SDS011;45224;50.904;6.038;2023-11-21T00:43:44;19.90;;;9.30;;
59418;SDS011;45224;50.904;6.038;2023-11-21T00:45:14;16.52;;;9.00;;
59418;SDS011;45224;50.904;6.038;2023-11-21T00:46:45;19.13;;;9.27;;
59418;SDS011;45224;50.904;6.038;2023-11-21T00:48:15;18.35;;;9.75;;
59418;SDS011;45224;50.904;6.038;2023-11-21T00:49:46;16.75;;;9.13;;
59418;SDS011;45224;50.904;6.038;2023-11-21T00:51:16;20.38;;;9.43;;
59418;SDS011;45224;50.904;6.038;2023-11-21T00:52:47;14.65;;;8.27;;
59418;SDS011;45224;50.904;6.038;2023-11-21T00:54:18;17.13;;;7.90;;
59418;SDS011;45224;50.904;6.038;2023-11-21T00:55:48;17.42;;;9.48;;
59418;SDS011;45224;50.904;6.038;2023-11-21T00:57:19;20.20;;;9.02;;
59418;SDS011;45224;50.904;6.038;2023-11-21T00:58:49;16.98;;;8.95;;
59418;SDS011;45224;50.904;6.038;2023-11-21T01:00:22;20.42;;;9.43;;
59418;SDS011;45224;50.904;6.038;2023-11-21T01:01:53;14.98;;;7.90;;
59418;SDS011;45224;50.904;6.038;2023-11-21T01:03:24;19.75;;;9.82;;
59418;SDS011;45224;50.904;6.038;2023-11-21T01:04:55;18.30;;;9.38;;
59418;SDS011;45224;50.904;6.038;2023-11-21T01:06:25;17.48;;;9.40;;
59418;SDS011;45224;50.904;6.038;2023-11-21T01:07:56;16.15;;;8.30;;
59418;SDS011;45224;50.904;6.038;2023-11-21T01:09:26;16.58;;;8.77;;
59418;SDS011;45224;50.904;6.038;2023-11-21T01:10:58;20.25;;;8.63;;
59418;SDS011;45224;50.904;6.038;2023-11-21T01:12:28;19.48;;;8.48;;
59418;SDS011;45224;50.904;6.038;2023-11-21T01:13:59;17.38;;;9.32;;
59418;SDS011;45224;50.904;6.038;2023-11-21T01:15:30;16.38;;;8.68;;
59418;SDS011;45224;50.904;6.038;2023-11-21T01:17:00;16.98;;;8.60;;
59418;SDS011;45224;50.904;6.038;2023-11-21T01:18:31;25.60;;;10.35;;
59418;SDS011;45224;50.904;6.038;2023-11-21T01:20:01;14.95;;;7.93;;
59418;SDS011;45224;50.904;6.038;2023-11-21T01:21:33;18.55;;;8.35;;
59418;SDS011;45224;50.904;6.038;2023-11-21T01:23:04;16.65;;;8.95;;
59418;SDS011;45224;50.904;6.038;2023-11-21T01:24:34;19.98;;;9.05;;
59418;SDS011;45224;50.904;6.038;2023-11-21T01:26:05;18.85;;;8.57;;
59418;SDS011;45224;50.904;6.038;2023-11-21T01:27:36;24.38;;;8.70;;
59418;SDS011;45224;50.904;6.038;2023-11-21T01:29:10;20.50;;;9.32;;
59418;SDS011;45224;50.904;6.038;2023-11-21T01:30:40;16.75;;;8.95;;
59418;SDS011;45224;50.904;6.038;2023-11-21T01:32:10;18.88;;;8.50;;
59418;SDS011;45224;50.904;6.038;2023-11-21T01:33:41;18.30;;;8.57;;
59418;SDS011;45224;50.904;6.038;2023-11-21T01:35:11;16.50;;;8.25;;
59418;SDS011;45224;50.904;6.038;2023-11-21T01:36:42;16.65;;;8.48;;
59418;SDS011;45224;50.904;6.038;2023-11-21T01:38:12;16.33;;;9.65;;
59418;SDS011;45224;50.904;6.038;2023-11-21T01:39:44;16.33;;;8.88;;
59418;SDS011;45224;50.904;6.038;2023-11-21T01:41:14;16.42;;;8.25;;
59418;SDS011;45224;50.904;6.038;2023-11-21T01:42:45;20.25;;;9.23;;
59418;SDS011;45224;50.904;6.038;2023-11-21T01:44:17;17.60;;;8.65;;
59418;SDS011;45224;50.904;6.038;2023-11-21T01:45:49;16.52;;;8.60;;
59418;SDS011;45224;50.904;6.038;2023-11-21T01:47:20;16.35;;;8.90;;
59418;SDS011;45224;50.904;6.038;2023-11-21T01:48:51;17.77;;;8.80;;
59418;SDS011;45224;50.904;6.038;2023-11-21T01:50:23;17.77;;;9.10;;
59418;SDS011;45224;50.904;6.038;2023-11-21T01:51:54;16.63;;;8.50;;
59418;SDS011;45224;50.904;6.038;2023-11-21T01:53:25;16.17;;;8.43;;
59418;SDS011;45224;50.904;6.038;2023-11-21T01:54:57;15.43;;;8.48;;
59418;SDS011;45224;50.904;6.038;2023-11-21T01:56:30;17.55;;;8.30;;
59418;SDS011;45224;50.904;6.038;2023-11-21T01:58:01;15.75;;;8.02;;
59418;SDS011;45224;50.904;6.038;2023-11-21T01:59:36;16.65;;;8.23;;
59418;SDS011;45224;50.904;6.038;2023-11-21T02:01:08;15.80;;;7.70;;
59418;SDS011;45224;50.904;6.038;2023-11-21T02:02:40;20.08;;;8.43;;
59418;SDS011;45224;50.904;6.038;2023-11-21T02:04:10;15.15;;;8.15;;
59418;SDS011;45224;50.904;6.038;2023-11-21T02:05:41;18.48;;;9.60;;
59418;SDS011;45224;50.904;6.038;2023-11-21T02:07:11;18.88;;;8.38;;
59418;SDS011;45224;50.904;6.038;2023-11-21T02:08:42;25.95;;;10.00;;
59418;SDS011;45224;50.904;6.038;2023-11-21T02:10:15;22.58;;;10.32;;
59418;SDS011;45224;50.904;6.038;2023-11-21T02:11:46;17.75;;;8.45;;
59418;SDS011;45224;50.904;6.038;2023-11-21T02:13:17;22.02;;;9.68;;
59418;SDS011;45224;50.904;6.038;2023-11-21T02:14:47;25.33;;;10.13;;
59418;SDS011;45224;50.904;6.038;2023-11-21T02:16:18;17.85;;;9.18;;
59418;SDS011;45224;50.904;6.038;2023-11-21T02:17:50;21.75;;;10.02;;
59418;SDS011;45224;50.904;6.038;2023-11-21T02:19:21;20.05;;;9.70;;
59418;SDS011;45224;50.904;6.038;2023-11-21T02:20:55;22.05;;;10.10;;
59418;SDS011;45224;50.904;6.038;2023-11-21T02:22:30;23.33;;;10.55;;
59418;SDS011;45224;50.904;6.038;2023-11-21T02:24:07;18.27;;;9.23;;
59418;SDS011;45224;50.904;6.038;2023-11-21T02:25:38;20.30;;;9.65;;
59418;SDS011;45224;50.904;6.038;2023-11-21T02:27:08;21.40;;;9.90;;
59418;SDS011;45224;50.904;6.038;2023-11-21T02:28:39;21.40;;;9.02;;
59418;SDS011;45224;50.904;6.038;2023-11-21T02:30:10;20.40;;;9.88;;
59418;SDS011;45224;50.904;6.038;2023-11-21T02:31:43;21.95;;;9.95;;
59418;SDS011;45224;50.904;6.038;2023-11-21T02:33:20;21.88;;;10.38;;
59418;SDS011;45224;50.904;6.038;2023-11-21T02:34:50;20.08;;;9.20;;
59418;SDS011;45224;50.904;6.038;2023-11-21T02:36:21;20.17;;;9.93;;
59418;SDS011;45224;50.904;6.038;2023-11-21T02:37:52;19.45;;;9.13;;
59418;SDS011;45224;50.904;6.038;2023-11-21T02:39:22;19.92;;;9.70;;
59418;SDS011;45224;50.904;6.038;2023-11-21T02:40:54;21.55;;;9.55;;
59418;SDS011;45224;50.904;6.038;2023-11-21T02:42:25;19.20;;;9.75;;
59418;SDS011;45224;50.904;6.038;2023-11-21T02:43:56;19.27;;;8.30;;
59418;SDS011;45224;50.904;6.038;2023-11-21T02:45:26;21.05;;;9.40;;
59418;SDS011;45224;50.904;6.038;2023-11-21T02:46:57;21.30;;;9.95;;
59418;SDS011;45224;50.904;6.038;2023-11-21T02:48:27;19.05;;;8.50;;
59418;SDS011;45224;50.904;6.038;2023-11-21T02:49:58;20.08;;;8.43;;
59418;SDS011;45224;50.904;6.038;2023-11-21T02:51:29;19.63;;;9.90;;
59418;SDS011;45224;50.904;6.038;2023-11-21T02:53:00;21.00;;;9.80;;
59418;SDS011;45224;50.904;6.038;2023-11-21T02:54:31;16.92;;;8.48;;
59418;SDS011;45224;50.904;6.038;2023-11-21T02:56:06;21.00;;;10.52;;
59418;SDS011;45224;50.904;6.038;2023-11-21T02:57:37;20.80;;;9.23;;
59418;SDS011;45224;50.904;6.038;2023-11-21T02:59:07;21.02;;;8.95;;
59418;SDS011;45224;50.904;6.038;2023-11-21T03:00:39;18.23;;;8.73;;
59418;SDS011;45224;50.904;6.038;2023-11-21T03:02:11;17.75;;;7.93;;
59418;SDS011;45224;50.904;6.038;2023-11-21T03:03:42;20.30;;;8.98;;
59418;SDS011;45224;50.904;6.038;2023-11-21T03:05:12;18.50;;;8.95;;
59418;SDS011;45224;50.904;6.038;2023-11-21T03:06:44;23.02;;;9.60;;
59418;SDS011;45224;50.904;6.038;2023-11-21T03:08:15;18.63;;;8.52;;
59418;SDS011;45224;50.904;6.038;2023-11-21T03:09:46;21.52;;;8.23;;
59418;SDS011;45224;50.904;6.038;2023-11-21T03:11:16;20.35;;;7.95;;
59418;SDS011;45224;50.904;6.038;2023-11-21T03:12:47;17.20;;;8.73;;
59418;SDS011;45224;50.904;6.038;2023-11-21T03:14:17;19.05;;;8.75;;
59418;SDS011;45224;50.904;6.038;2023-11-21T03:15:47;17.67;;;8.63;;
59418;SDS011;45224;50.904;6.038;2023-11-21T03:17:18;19.73;;;8.70;;
59418;SDS011;45224;50.904;6.038;2023-11-21T03:18:49;18.20;;;8.55;;
59418;SDS011;45224;50.904;6.038;2023-11-21T03:20:22;18.98;;;8.02;;
59418;SDS011;45224;50.904;6.038;2023-11-21T03:21:53;19.75;;;8.30;;
59418;SDS011;45224;50.904;6.038;2023-11-21T03:23:23;19.92;;;8.77;;
59418;SDS011;45224;50.904;6.038;2023-11-21T03:24:53;19.27;;;8.18;;
59418;SDS011;45224;50.904;6.038;2023-11-21T03:26:25;17.85;;;8.52;;
59418;SDS011;45224;50.904;6.038;2023-11-21T03:27:56;19.67;;;8.77;;
59418;SDS011;45224;50.904;6.038;2023-11-21T03:29:26;17.98;;;8.75;;
59418;SDS011;45224;50.904;6.038;2023-11-21T03:30:57;20.50;;;8.07;;
59418;SDS011;45224;50.904;6.038;2023-11-21T03:32:28;20.75;;;8.70;;
59418;SDS011;45224;50.904;6.038;2023-11-21T03:33:58;17.67;;;7.47;;
59418;SDS011;45224;50.904;6.038;2023-11-21T03:35:28;20.42;;;8.57;;
59418;SDS011;45224;50.904;6.038;2023-11-21T03:36:59;17.25;;;7.53;;
59418;SDS011;45224;50.904;6.038;2023-11-21T03:38:29;18.73;;;8.45;;
59418;SDS011;45224;50.904;6.038;2023-11-21T03:40:01;19.70;;;8.43;;
59418;SDS011;45224;50.904;6.038;2023-11-21T03:41:34;21.85;;;8.50;;
59418;SDS011;45224;50.904;6.038;2023-11-21T03:43:04;20.95;;;8.43;;
59418;SDS011;45224;50.904;6.038;2023-11-21T03:44:34;17.98;;;8.00;;
59418;SDS011;45224;50.904;6.038;2023-11-21T03:46:05;18.30;;;8.63;;
59418;SDS011;45224;50.904;6.038;2023-11-21T03:47:36;18.50;;;8.55;;
59418;SDS011;45224;50.904;6.038;2023-11-21T03:49:06;19.02;;;8.20;;
59418;SDS011;45224;50.904;6.038;2023-11-21T03:50:38;17.65;;;7.55;;
59418;SDS011;45224;50.904;6.038;2023-11-21T03:52:10;20.40;;;8.10;;
59418;SDS011;45224;50.904;6.038;2023-11-21T03:53:41;19.05;;;8.30;;
59418;SDS011;45224;50.904;6.038;2023-11-21T03:55:14;18.40;;;8.18;;
59418;SDS011;45224;50.904;6.038;2023-11-21T03:58:17;19.97;;;8.23;;
59418;SDS011;45224;50.904;6.038;2023-11-21T03:59:47;17.73;;;8.43;;
59418;SDS011;45224;50.904;6.038;2023-11-21T04:01:21;19.42;;;8.00;;
59418;SDS011;45224;50.904;6.038;2023-11-21T04:02:52;18.40;;;7.85;;
59418;SDS011;45224;50.904;6.038;2023-11-21T04:04:23;18.83;;;7.55;;
59418;SDS011;45224;50.904;6.038;2023-11-21T04:05:53;17.15;;;7.82;;
59418;SDS011;45224;50.904;6.038;2023-11-21T04:07:24;16.98;;;7.80;;
59418;SDS011;45224;50.904;6.038;2023-11-21T04:08:54;18.45;;;7.70;;
59418;SDS011;45224;50.904;6.038;2023-11-21T04:10:25;21.73;;;8.40;;
59418;SDS011;45224;50.904;6.038;2023-11-21T04:11:55;19.63;;;7.57;;
59418;SDS011;45224;50.904;6.038;2023-11-21T04:13:26;17.38;;;7.60;;
59418;SDS011;45224;50.904;6.038;2023-11-21T04:14:56;16.83;;;7.25;;
59418;SDS011;45224;50.904;6.038;2023-11-21T04:16:27;19.55;;;8.48;;
59418;SDS011;45224;50.904;6.038;2023-11-21T04:17:57;19.33;;;8.48;;
59418;SDS011;45224;50.904;6.038;2023-11-21T04:19:28;19.92;;;8.68;;
59418;SDS011;45224;50.904;6.038;2023-11-21T04:20:59;22.50;;;8.73;;
59418;SDS011;45224;50.904;6.038;2023-11-21T04:22:29;18.23;;;7.15;;
59418;SDS011;45224;50.904;6.038;2023-11-21T04:24:00;16.02;;;7.07;;
59418;SDS011;45224;50.904;6.038;2023-11-21T04:25:30;22.33;;;8.35;;
59418;SDS011;45224;50.904;6.038;2023-11-21T04:27:01;17.83;;;8.23;;
59418;SDS011;45224;50.904;6.038;2023-11-21T04:28:32;21.05;;;8.48;;
59418;SDS011;45224;50.904;6.038;2023-11-21T04:30:03;23.17;;;8.77;;
59418;SDS011;45224;50.904;6.038;2023-11-21T04:31:35;18.63;;;8.15;;
59418;SDS011;45224;50.904;6.038;2023-11-21T04:33:05;23.08;;;8.52;;
59418;SDS011;45224;50.904;6.038;2023-11-21T04:34:37;27.30;;;9.27;;
59418;SDS011;45224;50.904;6.038;2023-11-21T04:36:08;20.98;;;8.70;;
59418;SDS011;45224;50.904;6.038;2023-11-21T04:37:39;22.27;;;8.40;;
59418;SDS011;45224;50.904;6.038;2023-11-21T04:39:10;20.92;;;8.50;;
59418;SDS011;45224;50.904;6.038;2023-11-21T04:40:41;24.75;;;9.90;;
59418;SDS011;45224;50.904;6.038;2023-11-21T04:42:11;22.67;;;7.95;;
59418;SDS011;45224;50.904;6.038;2023-11-21T04:43:42;21.13;;;8.55;;
59418;SDS011;45224;50.904;6.038;2023-11-21T04:45:13;22.15;;;8.63;;
59418;SDS011;45224;50.904;6.038;2023-11-21T04:46:43;24.25;;;9.02;;
59418;SDS011;45224;50.904;6.038;2023-11-21T04:48:14;22.80;;;8.48;;
59418;SDS011;45224;50.904;6.038;2023-11-21T04:49:45;21.40;;;8.50;;
59418;SDS011;45224;50.904;6.038;2023-11-21T04:51:17;24.58;;;9.02;;
59418;SDS011;45224;50.904;6.038;2023-11-21T04:52:47;23.10;;;9.20;;
59418;SDS011;45224;50.904;6.038;2023-11-21T04:54:18;23.13;;;8.82;;
59418;SDS011;45224;50.904;6.038;2023-11-21T04:55:48;22.17;;;9.20;;
59418;SDS011;45224;50.904;6.038;2023-11-21T04:57:19;24.75;;;9.05;;
59418;SDS011;45224;50.904;6.038;2023-11-21T04:58:49;20.65;;;8.32;;
59418;SDS011;45224;50.904;6.038;2023-11-21T05:00:20;19.15;;;8.07;;
59418;SDS011;45224;50.904;6.038;2023-11-21T05:01:51;20.27;;;8.63;;
59418;SDS011;45224;50.904;6.038;2023-11-21T05:03:22;21.05;;;8.30;;
59418;SDS011;45224;50.904;6.038;2023-11-21T05:04:54;20.77;;;8.32;;
59418;SDS011;45224;50.904;6.038;2023-11-21T05:06:26;24.05;;;9.55;;
59418;SDS011;45224;50.904;6.038;2023-11-21T05:07:56;24.58;;;9.43;;
59418;SDS011;45224;50.904;6.038;2023-11-21T05:09:27;22.25;;;8.82;;
59418;SDS011;45224;50.904;6.038;2023-11-21T05:10:58;22.30;;;8.95;;
59418;SDS011;45224;50.904;6.038;2023-11-21T05:12:30;25.00;;;9.00;;
59418;SDS011;45224;50.904;6.038;2023-11-21T05:14:07;23.90;;;8.55;;
59418;SDS011;45224;50.904;6.038;2023-11-21T05:15:37;26.05;;;9.57;;
59418;SDS011;45224;50.904;6.038;2023-11-21T05:18:40;25.13;;;8.63;;
59418;SDS011;45224;50.904;6.038;2023-11-21T05:20:11;27.40;;;9.38;;
59418;SDS011;45224;50.904;6.038;2023-11-21T05:21:43;24.77;;;8.68;;
59418;SDS011;45224;50.904;6.038;2023-11-21T05:23:14;28.00;;;9.25;;
59418;SDS011;45224;50.904;6.038;2023-11-21T05:24:44;26.63;;;8.85;;
59418;SDS011;45224;50.904;6.038;2023-11-21T05:26:15;24.52;;;9.02;;
59418;SDS011;45224;50.904;6.038;2023-11-21T05:27:46;20.05;;;8.23;;
59418;SDS011;45224;50.904;6.038;2023-11-21T05:29:17;23.75;;;9.43;;
59418;SDS011;45224;50.904;6.038;2023-11-21T05:30:47;22.30;;;9.00;;
59418;SDS011;45224;50.904;6.038;2023-11-21T05:32:20;23.98;;;8.27;;
59418;SDS011;45224;50.904;6.038;2023-11-21T05:33:50;25.50;;;8.98;;
59418;SDS011;45224;50.904;6.038;2023-11-21T05:35:21;24.48;;;9.32;;
59418;SDS011;45224;50.904;6.038;2023-11-21T05:36:51;22.70;;;8.70;;
59418;SDS011;45224;50.904;6.038;2023-11-21T05:38:22;21.83;;;8.88;;
59418;SDS011;45224;50.904;6.038;2023-11-21T05:39:53;22.98;;;9.27;;
59418;SDS011;45224;50.904;6.038;2023-11-21T05:41:26;31.33;;;10.48;;
59418;SDS011;45224;50.904;6.038;2023-11-21T05:42:56;24.77;;;8.77;;
59418;SDS011;45224;50.904;6.038;2023-11-21T05:44:27;27.15;;;9.98;;
59418;SDS011;45224;50.904;6.038;2023-11-21T05:45:57;25.92;;;9.05;;
59418;SDS011;45224;50.904;6.038;2023-11-21T05:47:28;28.33;;;10.30;;
59418;SDS011;45224;50.904;6.038;2023-11-21T05:48:58;28.45;;;10.07;;
59418;SDS011;45224;50.904;6.038;2023-11-21T05:50:29;21.92;;;8.95;;
59418;SDS011;45224;50.904;6.038;2023-11-21T05:52:01;25.15;;;9.40;;
59418;SDS011;45224;50.904;6.038;2023-11-21T05:53:31;25.33;;;10.25;;
59418;SDS011;45224;50.904;6.038;2023-11-21T05:55:02;30.17;;;10.48;;
59418;SDS011;45224;50.904;6.038;2023-11-21T05:56:34;28.15;;;10.07;;
59418;SDS011;45224;50.904;6.038;2023-11-21T05:58:05;28.55;;;9.70;;
59418;SDS011;45224;50.904;6.038;2023-11-21T05:59:36;29.48;;;10.88;;
59418;SDS011;45224;50.904;6.038;2023-11-21T06:01:07;29.38;;;10.52;;
59418;SDS011;45224;50.904;6.038;2023-11-21T06:02:39;33.30;;;10.20;;
59418;SDS011;45224;50.904;6.038;2023-11-21T06:04:09;28.42;;;10.20;;
59418;SDS011;45224;50.904;6.038;2023-11-21T06:05:40;39.10;;;12.27;;
59418;SDS011;45224;50.904;6.038;2023-11-21T06:07:11;29.90;;;11.63;;
59418;SDS011;45224;50.904;6.038;2023-11-21T06:08:41;28.25;;;10.50;;
59418;SDS011;45224;50.904;6.038;2023-11-21T06:10:13;29.13;;;9.93;;
59418;SDS011;45224;50.904;6.038;2023-11-21T06:11:44;33.05;;;11.80;;
59418;SDS011;45224;50.904;6.038;2023-11-21T06:13:15;27.58;;;9.65;;
59418;SDS011;45224;50.904;6.038;2023-11-21T06:14:45;25.88;;;9.77;;
59418;SDS011;45224;50.904;6.038;2023-11-21T06:16:16;30.10;;;11.70;;
59418;SDS011;45224;50.904;6.038;2023-11-21T06:17:48;31.33;;;10.98;;
59418;SDS011;45224;50.904;6.038;2023-11-21T06:19:22;32.35;;;11.35;;
59418;SDS011;45224;50.904;6.038;2023-11-21T06:20:53;40.08;;;12.73;;
59418;SDS011;45224;50.904;6.038;2023-11-21T06:22:23;46.30;;;12.73;;
59418;SDS011;45224;50.904;6.038;2023-11-21T06:23:54;34.05;;;12.10;;
59418;SDS011;45224;50.904;6.038;2023-11-21T06:26:57;34.30;;;11.00;;
59418;SDS011;45224;50.904;6.038;2023-11-21T06:28:28;35.88;;;12.23;;
59418;SDS011;45224;50.904;6.038;2023-11-21T06:29:59;33.40;;;11.45;;
59418;SDS011;45224;50.904;6.038;2023-11-21T06:31:30;34.50;;;11.32;;
59418;SDS011;45224;50.904;6.038;2023-11-21T06:33:00;34.67;;;10.75;;
59418;SDS011;45224;50.904;6.038;2023-11-21T06:34:31;39.65;;;12.98;;
59418;SDS011;45224;50.904;6.038;2023-11-21T06:36:01;47.80;;;13.70;;
59418;SDS011;45224;50.904;6.038;2023-11-21T06:37:36;44.15;;;13.02;;
59418;SDS011;45224;50.904;6.038;2023-11-21T06:39:06;44.53;;;13.07;;
59418;SDS011;45224;50.904;6.038;2023-11-21T06:40:37;42.42;;;12.57;;
59418;SDS011;45224;50.904;6.038;2023-11-21T06:42:08;39.72;;;12.50;;
59418;SDS011;45224;50.904;6.038;2023-11-21T06:43:38;48.47;;;12.70;;
59418;SDS011;45224;50.904;6.038;2023-11-21T06:45:09;39.38;;;11.68;;
59418;SDS011;45224;50.904;6.038;2023-11-21T06:46:40;38.97;;;13.05;;
59418;SDS011;45224;50.904;6.038;2023-11-21T06:48:12;45.80;;;13.02;;
59418;SDS011;45224;50.904;6.038;2023-11-21T06:49:43;41.42;;;13.00;;
59418;SDS011;45224;50.904;6.038;2023-11-21T06:51:13;46.22;;;12.65;;
59418;SDS011;45224;50.904;6.038;2023-11-21T06:52:44;42.97;;;12.82;;
59418;SDS011;45224;50.904;6.038;2023-11-21T06:54:14;43.13;;;12.30;;
59418;SDS011;45224;50.904;6.038;2023-11-21T06:55:45;39.72;;;12.48;;
59418;SDS011;45224;50.904;6.038;2023-11-21T06:57:15;44.33;;;12.68;;
59418;SDS011;45224;50.904;6.038;2023-11-21T06:58:46;43.45;;;12.75;;
59418;SDS011;45224;50.904;6.038;2023-11-21T07:00:17;43.30;;;12.30;;
59418;SDS011;45224;50.904;6.038;2023-11-21T07:01:50;40.20;;;11.80;;
59418;SDS011;45224;50.904;6.038;2023-11-21T07:03:20;45.10;;;12.10;;
59418;SDS011;45224;50.904;6.038;2023-11-21T07:04:51;46.42;;;12.75;;
59418;SDS011;45224;50.904;6.038;2023-11-21T07:06:21;60.08;;;14.02;;
59418;SDS011;45224;50.904;6.038;2023-11-21T07:07:52;47.10;;;11.88;;
59418;SDS011;45224;50.904;6.038;2023-11-21T07:09:24;57.63;;;15.38;;
59418;SDS011;45224;50.904;6.038;2023-11-21T07:10:55;53.05;;;13.60;;
59418;SDS011;45224;50.904;6.038;2023-11-21T07:12:26;47.17;;;12.95;;
59418;SDS011;45224;50.904;6.038;2023-11-21T07:13:56;47.63;;;12.68;;
59418;SDS011;45224;50.904;6.038;2023-11-21T07:15:27;49.65;;;13.05;;
59418;SDS011;45224;50.904;6.038;2023-11-21T07:16:58;54.38;;;13.68;;
59418;SDS011;45224;50.904;6.038;2023-11-21T07:18:28;47.67;;;13.15;;
59418;SDS011;45224;50.904;6.038;2023-11-21T07:19:59;42.58;;;12.48;;
59418;SDS011;45224;50.904;6.038;2023-11-21T07:21:29;54.80;;;13.70;;
59418;SDS011;45224;50.904;6.038;2023-11-21T07:23:00;43.70;;;11.85;;
59418;SDS011;45224;50.904;6.038;2023-11-21T07:24:31;50.97;;;13.02;;
59418;SDS011;45224;50.904;6.038;2023-11-21T07:26:02;50.63;;;13.73;;
59418;SDS011;45224;50.904;6.038;2023-11-21T07:27:33;51.47;;;13.25;;
59418;SDS011;45224;50.904;6.038;2023-11-21T07:29:06;42.67;;;11.80;;
59418;SDS011;45224;50.904;6.038;2023-11-21T07:30:36;43.10;;;12.13;;
59418;SDS011;45224;50.904;6.038;2023-11-21T07:32:07;50.92;;;12.35;;
59418;SDS011;45224;50.904;6.038;2023-11-21T07:33:39;48.58;;;11.50;;
59418;SDS011;45224;50.904;6.038;2023-11-21T07:35:10;40.47;;;12.05;;
59418;SDS011;45224;50.904;6.038;2023-11-21T07:36:40;45.05;;;11.35;;
59418;SDS011;45224;50.904;6.038;2023-11-21T07:38:11;43.92;;;11.60;;
59418;SDS011;45224;50.904;6.038;2023-11-21T07:39:41;40.65;;;10.02;;
59418;SDS011;45224;50.904;6.038;2023-11-21T07:41:12;49.80;;;13.05;;
59418;SDS011;45224;50.904;6.038;2023-11-21T07:42:45;53.60;;;13.10;;
59418;SDS011;45224;50.904;6.038;2023-11-21T07:44:16;45.70;;;11.85;;
59418;SDS011;45224;50.904;6.038;2023-11-21T07:45:47;48.45;;;12.50;;
59418;SDS011;45224;50.904;6.038;2023-11-21T07:47:18;45.20;;;11.43;;
59418;SDS011;45224;50.904;6.038;2023-11-21T07:48:48;40.75;;;11.63;;
59418;SDS011;45224;50.904;6.038;2023-11-21T07:50:19;48.13;;;11.63;;
59418;SDS011;45224;50.904;6.038;2023-11-21T07:51:50;45.17;;;11.93;;
59418;SDS011;45224;50.904;6.038;2023-11-21T07:53:21;41.85;;;10.88;;
59418;SDS011;45224;50.904;6.038;2023-11-21T07:54:52;49.35;;;12.60;;
59418;SDS011;45224;50.904;6.038;2023-11-21T07:56:22;41.17;;;11.10;;
59418;SDS011;45224;50.904;6.038;2023-11-21T07:57:53;45.80;;;11.55;;
59418;SDS011;45224;50.904;6.038;2023-11-21T07:59:23;44.25;;;11.90;;
59418;SDS011;45224;50.904;6.038;2023-11-21T08:00:54;48.65;;;12.18;;
59418;SDS011;45224;50.904;6.038;2023-11-21T08:02:24;45.25;;;12.55;;
59418;SDS011;45224;50.904;6.038;2023-11-21T08:03:56;41.63;;;10.98;;
59418;SDS011;45224;50.904;6.038;2023-11-21T08:05:31;46.22;;;13.25;;
59418;SDS011;45224;50.904;6.038;2023-11-21T08:07:02;42.00;;;10.48;;
59418;SDS011;45224;50.904;6.038;2023-11-21T08:08:33;45.63;;;11.68;;
59418;SDS011;45224;50.904;6.038;2023-11-21T08:10:04;42.13;;;11.35;;
59418;SDS011;45224;50.904;6.038;2023-11-21T08:11:35;37.72;;;10.40;;
59418;SDS011;45224;50.904;6.038;2023-11-21T08:13:05;43.28;;;12.18;;
59418;SDS011;45224;50.904;6.038;2023-11-21T08:14:39;42.85;;;12.25;;
59418;SDS011;45224;50.904;6.038;2023-11-21T08:16:10;46.97;;;12.35;;
59418;SDS011;45224;50.904;6.038;2023-11-21T08:17:42;39.65;;;11.40;;
59418;SDS011;45224;50.904;6.038;2023-11-21T08:19:12;46.95;;;12.75;;
59418;SDS011;45224;50.904;6.038;2023-11-21T08:20:44;48.25;;;11.98;;
59418;SDS011;45224;50.904;6.038;2023-11-21T08:22:17;37.65;;;10.82;;
59418;SDS011;45224;50.904;6.038;2023-11-21T08:23:48;43.15;;;11.30;;
59418;SDS011;45224;50.904;6.038;2023-11-21T08:25:23;34.67;;;9.93;;
59418;SDS011;45224;50.904;6.038;2023-11-21T08:26:54;46.90;;;12.40;;
59418;SDS011;45224;50.904;6.038;2023-11-21T08:28:26;38.22;;;10.93;;
59418;SDS011;45224;50.904;6.038;2023-11-21T08:29:57;43.80;;;12.15;;
59418;SDS011;45224;50.904;6.038;2023-11-21T08:31:28;46.22;;;12.05;;
59418;SDS011;45224;50.904;6.038;2023-11-21T08:32:59;50.03;;;13.20;;
59418;SDS011;45224;50.904;6.038;2023-11-21T08:34:29;43.58;;;11.93;;
59418;SDS011;45224;50.904;6.038;2023-11-21T08:36:00;44.05;;;11.27;;
59418;SDS011;45224;50.904;6.038;2023-11-21T08:37:31;41.72;;;11.32;;
59418;SDS011;45224;50.904;6.038;2023-11-21T08:39:03;41.55;;;12.60;;
59418;SDS011;45224;50.904;6.038;2023-11-21T08:40:34;42.85;;;11.70;;
59418;SDS011;45224;50.904;6.038;2023-11-21T08:42:05;42.45;;;11.52;;
59418;SDS011;45224;50.904;6.038;2023-11-21T08:43:35;40.15;;;12.25;;
59418;SDS011;45224;50.904;6.038;2023-11-21T08:45:09;42.15;;;12.80;;
59418;SDS011;45224;50.904;6.038;2023-11-21T08:46:40;42.13;;;12.60;;
59418;SDS011;45224;50.904;6.038;2023-11-21T08:48:11;39.60;;;12.35;;
59418;SDS011;45224;50.904;6.038;2023-11-21T08:49:42;42.38;;;12.32;;
59418;SDS011;45224;50.904;6.038;2023-11-21T08:51:12;42.47;;;11.95;;
59418;SDS011;45224;50.904;6.038;2023-11-21T08:52:44;40.10;;;12.50;;
59418;SDS011;45224;50.904;6.038;2023-11-21T08:54:16;46.97;;;13.60;;
59418;SDS011;45224;50.904;6.038;2023-11-21T08:55:46;39.65;;;11.25;;
59418;SDS011;45224;50.904;6.038;2023-11-21T08:57:17;39.72;;;12.00;;
59418;SDS011;45224;50.904;6.038;2023-11-21T08:58:47;44.17;;;12.77;;
59418;SDS011;45224;50.904;6.038;2023-11-21T09:00:18;50.30;;;13.93;;
59418;SDS011;45224;50.904;6.038;2023-11-21T09:01:48;46.22;;;13.63;;